Date,TemperatureHighF,TemperatureAvgF,TemperatureLowF,DewpointHighF,DewpointAvgF,DewpointLowF,HumidityHigh,HumidityAvg,HumidityLow,PressureMaxIn,PressureMinIn,WindSpeedMaxMPH,WindSpeedAvgMPH,GustSpeedMaxMPH,PrecipitationSumIn
2013-3-1,28.8,24.2,16.7,15.0,13.5,10.0,76,64,55,30.37,30.22,11,2,0,0.00
2013-3-2,27.9,19.3,7.9,11.0,7.4,0.0,85,62,38,30.38,30.19,5,1,0,0.00
2013-3-3,32.2,25.5,18.1,11.0,8.1,4.0,62,49,36,30.18,29.97,11,4,0,0.00
2013-3-4,27.8,24.4,22.1,21.0,16.9,11.0,90,74,49,30.04,29.93,13,5,0,0.00
2013-3-5,29.1,25.1,21.3,23.0,21.4,16.0,92,86,77,30.32,29.97,11,3,0,0.09
2013-3-6,29.3,22.6,14.4,18.0,15.4,11.0,86,74,60,30.43,30.31,6,2,0,0.08
2013-3-7,30.3,20.5,7.2,17.0,12.6,3.0,87,73,56,30.40,30.29,10,2,0,0.04
2013-3-8,38.6,28.3,14.6,28.0,21.4,11.0,88,76,63,30.33,30.07,10,2,0,0.03
2013-3-9,37.3,35.6,33.4,36.0,33.6,27.0,96,92,73,30.07,29.68,11,2,0,0.78
2013-3-10,34.3,32.7,29.4,33.0,27.9,23.0,96,82,75,29.94,29.76,17,8,0,0.03
2013-3-11,29.8,27.1,21.3,23.0,19.8,14.0,79,74,62,29.86,29.76,11,4,0,0.00
2013-3-12,27.0,24.0,20.0,19.0,14.2,8.0,78,67,48,30.21,29.84,14,4,0,0.00
2013-3-13,28.2,20.6,10.5,17.0,11.9,6.0,83,70,53,30.41,30.22,6,2,0,0.00
2013-3-14,39.3,30.5,23.5,25.0,22.3,16.0,89,73,56,30.26,30.01,7,2,0,0.04
2013-3-15,33.7,30.7,25.4,31.0,27.2,23.0,92,87,80,30.01,29.82,10,2,0,0.03
2013-3-16,26.0,21.0,12.8,23.0,12.4,3.0,91,70,49,30.27,29.89,9,3,0,0.00
2013-3-17,27.5,18.4,8.4,20.0,5.9,-2.0,73,59,50,30.29,29.88,14,5,0,0.00
2013-3-18,29.8,21.2,11.2,28.0,15.0,3.0,93,77,66,29.87,29.61,27,8,0,0.00
2013-3-19,21.8,12.4,6.1,4.0,-0.3,-4.0,71,58,40,30.25,29.87,13,6,0,0.00
2013-3-20,19.5,12.0,5.4,2.0,-1.9,-6.0,62,54,45,30.28,30.17,11,4,0,0.00
2013-3-21,26.4,15.9,2.6,7.0,2.4,-5.0,74,57,40,30.17,30.08,5,1,0,0.01
2013-3-22,35.2,22.0,7.7,15.0,8.7,2.0,77,58,37,30.12,30.06,7,1,0,0.00
2013-3-23,35.3,26.7,15.1,19.0,15.2,10.0,82,63,44,30.16,30.07,6,1,0,0.00
2013-3-24,32.5,28.8,25.4,24.0,20.8,18.0,88,73,56,30.11,29.98,14,3,0,0.01
2013-3-25,36.5,29.9,23.0,22.0,16.3,14.0,75,58,41,30.23,30.03,9,3,0,0.00
2013-3-26,36.9,27.8,21.1,22.0,18.6,15.0,81,69,50,30.31,30.23,7,2,0,0.00
2013-3-27,39.9,30.7,19.1,24.0,17.6,15.0,89,62,37,30.35,30.30,7,1,0,0.00
2013-3-28,43.1,33.8,22.7,26.0,21.3,17.0,80,61,43,30.34,30.27,5,1,0,0.00
2013-3-29,49.6,39.7,29.4,36.0,30.1,24.0,79,69,53,30.27,30.04,11,2,0,0.00
2013-3-30,51.1,42.9,33.8,42.0,36.4,31.0,92,78,64,30.03,29.83,12,4,0,0.10
2013-3-31,38.5,33.0,23.2,32.0,22.6,12.0,97,68,37,30.10,29.80,13,5,0,0.00